Faith, Minnesota
Current Conditions -  °F | °C
As of 4:35 PM on Monday 22 Dec 2014 (Local Time) from K3N8 Reporting Station
Overcast Overcast  
Wind Chill: 30°   Ceiling: 1200
Heat Index: 36°   Visibility: 10mi
Dew Point: 33°   Wind: 7mph
Humidity: 91%   Direction: 110°ESE
Pressure: 29.58"   Gusts: NA
Location:  47.2382°N, 96.2513°W
Report Text: K3N8 222235Z AUTO 11006KT 10SM OVC012 02/01 A2958 RMK AO2 T00200006
Loading
Personal Weather Stations






























Interactive Weather Map New forecast layout! Learn more

10-Day Weather Forecast

Advertisements
Track Severe Weather on mobile